createdAt,value
2022-10-14T00:01:23.665Z,36.83
2022-10-14T00:03:52.505Z,34.33
2022-10-14T00:06:29.273Z,33.70
2022-10-14T00:09:02.180Z,36.90
2022-10-14T00:11:34.588Z,36.60
2022-10-14T00:14:17.246Z,32.53
2022-10-14T00:16:48.945Z,28.48
2022-10-14T00:19:16.517Z,31.95
2022-10-14T00:21:46.253Z,28.48
2022-10-14T00:24:17.473Z,31.90
2022-10-14T00:26:45.505Z,32.67
2022-10-14T00:31:46.120Z,31.95
2022-10-14T00:34:16.111Z,31.08
2022-10-14T00:36:44.643Z,30.33
2022-10-14T00:39:12.391Z,27.70
2022-10-14T00:41:40.901Z,31.73
2022-10-14T00:44:27.710Z,28.77
2022-10-14T00:46:56.674Z,26.42
2022-10-14T00:49:40.885Z,27.98
2022-10-14T00:52:22.145Z,27.80
2022-10-14T00:55:03.989Z,25.70
2022-10-14T00:57:32.716Z,26.45
2022-10-14T01:00:12.254Z,24.17
2022-10-14T01:02:39.879Z,26.60
2022-10-14T01:05:14.610Z,27.52
2022-10-14T01:08:07.702Z,29.23
2022-10-14T01:11:13.040Z,28.85
2022-10-14T01:14:01.454Z,32.65
2022-10-14T01:17:02.990Z,34.75
2022-10-14T01:19:47.591Z,26.88
2022-10-14T01:22:35.223Z,28.20
2022-10-14T01:25:27.754Z,27.33
2022-10-14T01:28:09.581Z,28.67
2022-10-14T01:31:01.002Z,31.40
2022-10-14T01:33:39.130Z,31.35
2022-10-14T01:36:24.524Z,27.92
2022-10-14T01:39:10.580Z,27.42
2022-10-14T01:41:52.789Z,24.85
2022-10-14T01:44:27.068Z,28.60
2022-10-14T01:46:57.569Z,29.40
2022-10-14T01:49:53.897Z,28.08
2022-10-14T01:52:31.823Z,29.40
2022-10-14T01:55:14.306Z,31.77
2022-10-14T01:57:49.103Z,30.42
2022-10-14T02:00:16.874Z,30.73
2022-10-14T02:02:43.878Z,30.60
2022-10-14T02:05:45.337Z,28.30
2022-10-14T02:09:03.330Z,31.30
2022-10-14T02:12:19.020Z,28.38
2022-10-14T02:15:20.791Z,27.42
2022-10-14T02:18:40.580Z,27.08
2022-10-14T02:21:27.529Z,31.00
2022-10-14T02:24:34.070Z,24.80
2022-10-14T02:27:11.410Z,26.85
2022-10-14T02:29:45.554Z,29.52
2022-10-14T02:32:21.057Z,27.23
2022-10-14T02:34:54.745Z,27.00
2022-10-14T02:37:26.050Z,24.63
2022-10-14T02:40:38.086Z,26.98
2022-10-14T02:43:08.125Z,21.77
2022-10-14T02:45:35.333Z,25.70
2022-10-14T02:48:02.314Z,26.38
2022-10-14T02:50:29.359Z,28.00
2022-10-14T02:52:56.301Z,23.88
2022-10-14T02:55:23.511Z,24.30
2022-10-14T02:57:51.070Z,25.45
2022-10-14T03:00:19.346Z,21.73
2022-10-14T03:02:46.380Z,23.85
2022-10-14T03:05:13.642Z,22.30
2022-10-14T03:07:40.713Z,22.52
2022-10-14T03:10:08.250Z,26.60
2022-10-14T03:12:35.361Z,25.42
2022-10-14T03:15:02.288Z,26.07
2022-10-14T03:17:29.377Z,28.67
2022-10-14T03:19:56.436Z,24.50
2022-10-14T03:22:23.863Z,20.00
2022-10-14T03:24:50.994Z,22.33
2022-10-14T03:27:17.956Z,23.48
2022-10-14T03:29:44.884Z,27.50
2022-10-14T03:32:11.863Z,23.05
2022-10-14T03:34:38.989Z,23.27
2022-10-14T03:37:06.355Z,24.13
2022-10-14T03:39:33.465Z,22.75
2022-10-14T03:42:00.510Z,26.80
2022-10-14T03:44:27.490Z,20.67
2022-10-14T03:46:54.496Z,25.00
2022-10-14T03:49:21.606Z,25.27
2022-10-14T03:51:48.563Z,28.30
2022-10-14T03:54:15.612Z,25.98
2022-10-14T03:56:42.623Z,22.83
2022-10-14T03:59:09.615Z,27.33
2022-10-14T04:01:36.596Z,26.52
2022-10-14T04:04:03.715Z,22.15
2022-10-14T04:06:31.650Z,26.27
2022-10-14T04:08:58.676Z,22.50
2022-10-14T04:11:25.666Z,24.73
2022-10-14T04:13:52.703Z,23.48
2022-10-14T04:16:20.389Z,26.05
2022-10-14T04:18:47.347Z,22.88
2022-10-14T04:21:14.387Z,23.10
2022-10-14T04:23:41.303Z,29.08
2022-10-14T04:26:10.337Z,24.60
2022-10-14T04:28:38.593Z,26.35
2022-10-14T04:31:06.448Z,23.95
2022-10-14T04:33:35.072Z,30.10
2022-10-14T04:36:06.530Z,22.77
2022-10-14T04:38:34.015Z,20.38
2022-10-14T04:41:01.120Z,25.25
2022-10-14T04:43:28.105Z,28.53
2022-10-14T04:45:55.130Z,26.00
2022-10-14T04:48:22.389Z,22.83
2022-10-14T04:50:54.234Z,28.75
2022-10-14T04:53:22.458Z,24.00
2022-10-14T04:55:50.229Z,24.80
2022-10-14T04:58:17.474Z,28.05
2022-10-14T05:00:44.555Z,27.83
2022-10-14T05:03:11.757Z,31.52
2022-10-14T05:05:38.883Z,28.38
2022-10-14T05:08:07.041Z,26.43
2022-10-14T05:10:34.443Z,28.52
2022-10-14T05:13:01.840Z,27.67
2022-10-14T05:15:29.134Z,33.05
2022-10-14T05:17:56.405Z,28.52
2022-10-14T05:20:23.362Z,30.83
2022-10-14T05:22:50.715Z,26.90
2022-10-14T05:25:17.741Z,24.38
2022-10-14T05:27:44.812Z,25.52
2022-10-14T05:30:12.655Z,23.30
2022-10-14T05:32:39.703Z,24.52
2022-10-14T05:35:07.079Z,25.30
2022-10-14T05:37:34.092Z,22.85
2022-10-14T05:40:01.038Z,29.38
2022-10-14T05:42:28.031Z,28.77
2022-10-14T05:44:54.955Z,25.77
2022-10-14T05:47:21.952Z,31.08
2022-10-14T05:49:48.906Z,23.80
2022-10-14T05:52:16.133Z,26.25
2022-10-14T05:54:43.061Z,28.67
2022-10-14T05:57:10.214Z,26.65
2022-10-14T05:59:37.180Z,26.57
2022-10-14T06:02:04.263Z,28.10
2022-10-14T06:04:31.164Z,33.27
2022-10-14T06:07:00.038Z,23.92
2022-10-14T06:09:27.102Z,29.38
2022-10-14T06:11:54.014Z,28.00
2022-10-14T06:14:20.954Z,27.95
2022-10-14T06:16:51.193Z,31.50
2022-10-14T06:19:18.149Z,25.00
2022-10-14T06:21:45.132Z,30.15
2022-10-14T06:24:12.271Z,29.20
2022-10-14T06:26:39.681Z,30.50
2022-10-14T06:29:06.849Z,27.25
2022-10-14T06:31:34.443Z,30.60
2022-10-14T06:34:06.337Z,28.73
2022-10-14T06:36:35.240Z,32.80
2022-10-14T06:39:02.182Z,32.95
2022-10-14T06:41:29.141Z,37.50
2022-10-14T06:43:56.166Z,32.55
2022-10-14T06:46:25.095Z,33.37
2022-10-14T06:48:52.178Z,35.58
2022-10-14T06:51:19.277Z,32.13
2022-10-14T06:53:46.217Z,30.10
2022-10-14T06:56:13.222Z,38.22
2022-10-14T06:58:40.338Z,37.22
2022-10-14T07:01:08.981Z,37.47
2022-10-14T07:03:39.167Z,35.78
2022-10-14T07:06:08.284Z,41.05
2022-10-14T07:08:36.027Z,40.08
2022-10-14T07:11:04.369Z,46.53
2022-10-14T07:13:32.248Z,40.58
2022-10-14T07:15:59.519Z,39.05
2022-10-14T07:18:26.808Z,39.90
2022-10-14T07:20:53.843Z,37.42
2022-10-14T07:23:20.948Z,35.50
2022-10-14T07:25:48.008Z,44.58
2022-10-14T07:28:15.548Z,40.70
2022-10-14T07:30:42.557Z,33.10
2022-10-14T07:33:09.566Z,37.28
2022-10-14T07:35:39.167Z,37.95
2022-10-14T07:38:06.217Z,35.20
2022-10-14T07:40:33.250Z,39.20
2022-10-14T07:43:00.215Z,38.78
2022-10-14T07:45:27.249Z,35.38
2022-10-14T07:47:54.244Z,38.92
2022-10-14T07:50:21.215Z,38.03
2022-10-14T07:52:48.244Z,37.70
2022-10-14T07:55:15.270Z,36.85
2022-10-14T07:57:42.382Z,39.05
2022-10-14T08:00:10.330Z,36.30
2022-10-14T08:05:25.505Z,33.92
2022-10-14T08:07:51.967Z,34.85
2022-10-14T08:10:19.039Z,37.88
2022-10-14T08:12:46.404Z,35.23
2022-10-14T08:15:13.490Z,34.97
2022-10-14T08:17:40.551Z,32.63
2022-10-14T08:20:08.430Z,42.23
2022-10-14T08:22:35.625Z,37.63
2022-10-14T08:25:02.654Z,41.08
2022-10-14T08:27:29.622Z,38.07
2022-10-14T08:29:56.580Z,38.20
2022-10-14T08:32:24.155Z,43.40
2022-10-14T08:34:56.051Z,36.15
2022-10-14T08:37:23.574Z,39.88
2022-10-14T08:39:50.532Z,39.03
2022-10-14T08:43:00.143Z,34.03
2022-10-14T08:45:49.828Z,36.92
2022-10-14T08:48:26.502Z,34.67
2022-10-14T08:51:17.156Z,36.90
2022-10-14T08:53:56.455Z,36.03
2022-10-14T08:56:24.671Z,34.10
2022-10-14T08:59:10.281Z,35.47
2022-10-14T09:01:54.442Z,34.67
2022-10-14T09:04:21.640Z,35.97
2022-10-14T09:06:52.411Z,38.13
2022-10-14T09:09:49.552Z,33.83
2022-10-14T09:12:33.214Z,40.15
2022-10-14T09:15:16.285Z,36.30
2022-10-14T09:18:23.949Z,37.38
2022-10-14T09:20:54.107Z,34.47
2022-10-14T09:23:27.384Z,33.47
2022-10-14T09:26:09.434Z,34.13
2022-10-14T09:28:43.616Z,33.80
2022-10-14T09:31:14.566Z,33.97
2022-10-14T09:33:45.018Z,33.42
2022-10-14T09:36:22.329Z,37.67
2022-10-14T09:38:55.589Z,33.53
2022-10-14T09:41:32.074Z,37.15
2022-10-14T09:44:28.114Z,38.80
2022-10-14T09:47:12.288Z,34.08
2022-10-14T09:49:46.070Z,31.80
2022-10-14T09:52:30.660Z,33.00
2022-10-14T09:55:01.804Z,31.35
2022-10-14T09:57:29.538Z,30.90
2022-10-14T10:00:03.776Z,36.83
2022-10-14T10:02:46.932Z,33.83
2022-10-14T10:05:31.022Z,36.20
2022-10-14T10:08:18.641Z,32.20
2022-10-14T10:11:10.552Z,33.20
2022-10-14T10:13:56.663Z,35.05
2022-10-14T10:16:32.862Z,33.90
2022-10-14T10:19:34.437Z,32.53
2022-10-14T10:24:51.744Z,34.00
2022-10-14T10:27:28.134Z,32.33
2022-10-14T10:29:56.309Z,32.28
2022-10-14T10:33:03.497Z,38.80
2022-10-14T10:36:21.378Z,33.97
2022-10-14T10:39:18.576Z,33.75
2022-10-14T10:42:15.406Z,28.77
2022-10-14T10:45:46.797Z,33.42
2022-10-14T10:48:46.738Z,29.17
2022-10-14T10:51:38.843Z,27.40
2022-10-14T10:54:56.691Z,31.67
2022-10-14T10:58:20.799Z,25.55
2022-10-14T11:01:41.205Z,27.60
2022-10-14T11:04:34.934Z,26.30
2022-10-14T11:07:55.825Z,25.85
2022-10-14T11:11:36.103Z,25.50
2022-10-14T11:15:05.472Z,27.40
2022-10-14T11:18:00.211Z,27.88
2022-10-14T11:21:05.363Z,27.70
2022-10-14T11:24:07.994Z,24.40
2022-10-14T11:27:00.197Z,26.00
2022-10-14T11:30:10.654Z,23.38
2022-10-14T11:36:44.564Z,19.67
2022-10-14T11:39:55.369Z,19.80
2022-10-14T11:43:13.647Z,18.60
2022-10-14T11:46:03.708Z,19.48
2022-10-14T11:48:34.907Z,20.38
2022-10-14T11:51:45.504Z,20.60
2022-10-14T11:54:39.621Z,21.10
2022-10-14T11:57:30.250Z,18.25
2022-10-14T12:00:23.819Z,20.92
2022-10-14T12:03:30.574Z,16.67
2022-10-14T12:06:17.687Z,16.00
2022-10-14T12:09:11.294Z,15.52
2022-10-14T12:11:57.820Z,14.85
2022-10-14T12:14:41.098Z,11.07
2022-10-14T12:17:47.280Z,14.23
2022-10-14T12:20:44.862Z,16.02
2022-10-14T12:23:48.429Z,14.07
2022-10-14T12:26:23.886Z,18.85
2022-10-14T12:28:54.469Z,12.65
2022-10-14T12:31:38.267Z,12.55
2022-10-14T12:34:11.060Z,10.98
2022-10-14T12:36:43.154Z,11.32
2022-10-14T12:39:18.913Z,11.80
2022-10-14T12:41:59.733Z,11.32
2022-10-14T12:44:58.951Z,9.07
2022-10-14T12:47:36.000Z,11.52
2022-10-14T12:50:29.753Z,11.98
2022-10-14T12:53:05.229Z,10.45
2022-10-14T12:55:54.146Z,11.93
2022-10-14T12:58:40.458Z,11.25
2022-10-14T13:01:21.606Z,14.85
2022-10-14T13:04:03.869Z,11.35
2022-10-14T13:06:43.056Z,13.65
2022-10-14T13:09:12.865Z,9.77
2022-10-14T13:11:53.150Z,11.68
2022-10-14T13:15:00.977Z,15.23
2022-10-14T13:17:48.229Z,12.15
2022-10-14T13:20:33.934Z,10.85
2022-10-14T13:23:53.649Z,12.25
2022-10-14T13:26:41.407Z,12.70
2022-10-14T13:29:10.931Z,12.30
2022-10-14T13:32:35.262Z,10.02
2022-10-14T13:35:46.015Z,13.77
2022-10-14T13:38:23.999Z,11.48
2022-10-14T13:40:57.397Z,11.23
2022-10-14T13:43:43.401Z,15.02
2022-10-14T13:46:47.457Z,13.48
2022-10-14T13:49:34.706Z,12.15
2022-10-14T13:52:13.714Z,10.98
2022-10-14T13:54:40.696Z,8.82
2022-10-14T14:00:44.429Z,10.63
2022-10-14T14:03:45.163Z,8.52
2022-10-14T14:06:21.817Z,10.43
2022-10-14T14:09:04.187Z,7.45
2022-10-14T14:11:37.813Z,8.70
2022-10-14T14:14:23.023Z,8.77
2022-10-14T14:17:00.775Z,9.80
2022-10-14T14:19:35.256Z,10.90
2022-10-14T14:22:30.765Z,15.77
2022-10-14T14:25:34.604Z,14.38
2022-10-14T14:28:06.160Z,13.80
2022-10-14T14:30:39.198Z,17.27
2022-10-14T14:33:19.620Z,11.82
2022-10-14T14:36:03.866Z,11.23
2022-10-14T14:38:37.561Z,9.98
2022-10-14T14:41:23.070Z,8.70
2022-10-14T14:44:26.767Z,11.18
2022-10-14T14:46:53.786Z,9.73
2022-10-14T14:49:36.081Z,8.70
2022-10-14T14:52:06.307Z,8.38
2022-10-14T14:54:33.463Z,8.57
2022-10-14T14:57:00.499Z,8.82
2022-10-14T14:59:40.735Z,11.00
2022-10-14T15:02:23.314Z,10.63
2022-10-14T15:05:08.406Z,10.85
2022-10-14T15:07:37.771Z,8.35
2022-10-14T15:10:20.264Z,9.48
2022-10-14T15:12:58.697Z,8.88
2022-10-14T15:15:34.669Z,9.25
2022-10-14T15:18:24.701Z,7.13
2022-10-14T15:20:52.706Z,8.25
2022-10-14T15:23:50.610Z,7.55
2022-10-14T15:26:36.373Z,9.93
2022-10-14T15:29:16.667Z,7.70
2022-10-14T15:32:02.707Z,9.00
2022-10-14T15:34:29.919Z,6.70
2022-10-14T15:36:56.985Z,9.68
2022-10-14T15:39:24.142Z,8.80
2022-10-14T15:41:51.406Z,8.05
2022-10-14T15:44:18.445Z,10.70
2022-10-14T15:47:05.649Z,7.38
2022-10-14T15:49:42.958Z,6.60
2022-10-14T15:52:19.324Z,9.35
2022-10-14T15:54:49.373Z,10.85
2022-10-14T15:57:17.342Z,8.32
2022-10-14T16:02:35.982Z,9.77
2022-10-14T16:05:22.392Z,9.45
2022-10-14T16:07:49.898Z,8.45
2022-10-14T16:10:22.022Z,9.65
2022-10-14T16:12:50.376Z,8.13
2022-10-14T16:15:56.469Z,7.93
2022-10-14T16:18:24.678Z,7.18
2022-10-14T16:20:52.708Z,11.90
2022-10-14T16:23:28.310Z,7.25
2022-10-14T16:26:00.414Z,6.35
2022-10-14T16:28:27.418Z,8.70
2022-10-14T16:30:54.484Z,7.87
2022-10-14T16:33:22.418Z,9.17
2022-10-14T16:38:23.002Z,9.93
2022-10-14T16:41:00.019Z,7.00
2022-10-14T16:43:29.512Z,9.25
2022-10-14T16:46:05.665Z,9.25
2022-10-14T16:48:35.784Z,9.93
2022-10-14T16:51:03.810Z,11.15
2022-10-14T16:53:40.640Z,8.57
2022-10-14T16:56:39.953Z,14.82
2022-10-14T16:59:10.335Z,9.13
2022-10-14T17:01:37.426Z,12.80
2022-10-14T17:04:04.616Z,12.75
2022-10-14T17:06:32.395Z,14.25
2022-10-14T17:08:59.384Z,14.52
2022-10-14T17:11:29.345Z,15.40
2022-10-14T17:13:59.817Z,17.73
2022-10-14T17:16:28.806Z,13.70
2022-10-14T17:18:58.941Z,14.15
2022-10-14T17:21:29.822Z,14.48
2022-10-14T17:24:02.027Z,18.45
2022-10-14T17:26:33.072Z,12.82
2022-10-14T17:29:00.299Z,15.00
2022-10-14T17:31:29.039Z,14.05
2022-10-14T17:33:56.279Z,12.88
2022-10-14T17:36:29.004Z,12.02
2022-10-14T17:38:58.304Z,13.13
2022-10-14T17:41:29.612Z,14.05
2022-10-14T17:44:01.423Z,15.25
2022-10-14T17:46:31.410Z,16.85
2022-10-14T17:49:03.996Z,15.05
2022-10-14T17:51:32.991Z,13.68
2022-10-14T17:54:05.122Z,12.15
2022-10-14T17:56:36.436Z,12.75
2022-10-14T17:59:10.473Z,11.60
2022-10-14T18:02:00.896Z,13.02
2022-10-14T18:04:24.707Z,11.63
2022-10-14T18:06:52.663Z,12.05
2022-10-14T18:12:07.544Z,12.23
2022-10-14T18:14:34.122Z,14.93
2022-10-14T18:17:01.668Z,11.85
2022-10-14T18:19:28.737Z,13.63
2022-10-14T18:21:55.729Z,12.57
2022-10-14T18:24:23.443Z,10.85
2022-10-14T18:26:52.811Z,17.08
2022-10-14T18:29:20.143Z,16.08
2022-10-14T18:34:37.262Z,15.02
2022-10-14T18:37:04.278Z,12.98
2022-10-14T18:39:31.192Z,10.67
2022-10-14T18:41:58.339Z,12.95
2022-10-14T18:44:25.601Z,11.35
2022-10-14T18:46:53.018Z,12.15
2022-10-14T18:49:20.157Z,12.73
2022-10-14T18:51:47.136Z,13.60
2022-10-14T18:54:18.911Z,12.70
2022-10-14T18:56:47.279Z,13.05
2022-10-14T18:59:20.270Z,11.98
2022-10-14T19:01:53.370Z,13.48
2022-10-14T19:04:26.870Z,12.13
2022-10-14T19:06:54.520Z,12.52
2022-10-14T19:09:24.910Z,15.57
2022-10-14T19:11:52.960Z,11.65
2022-10-14T19:16:49.576Z,12.32
2022-10-14T19:19:20.148Z,10.07
2022-10-14T19:21:54.555Z,10.07
2022-10-14T19:24:21.893Z,10.75
2022-10-14T19:26:50.113Z,11.80
2022-10-14T19:29:17.625Z,10.25
2022-10-14T19:31:45.032Z,9.93
2022-10-14T19:34:16.265Z,10.30
2022-10-14T19:36:45.719Z,12.60
2022-10-14T19:39:16.949Z,11.70
2022-10-14T19:41:46.416Z,10.82
2022-10-14T19:44:16.474Z,12.65
2022-10-14T19:46:45.384Z,10.88
2022-10-14T19:49:15.532Z,12.93
2022-10-14T19:51:43.422Z,13.38
2022-10-14T19:54:13.488Z,12.90
2022-10-14T19:56:40.514Z,14.40
2022-10-14T19:59:08.846Z,12.70
2022-10-14T20:01:36.064Z,13.38
2022-10-14T20:04:03.543Z,13.30
2022-10-14T20:06:35.753Z,11.90
2022-10-14T20:09:04.355Z,11.65
2022-10-14T20:11:31.426Z,10.75
2022-10-14T20:13:58.440Z,17.07
2022-10-14T20:16:27.061Z,13.13
2022-10-14T20:18:54.940Z,12.25
2022-10-14T20:21:21.964Z,12.73
2022-10-14T20:23:48.949Z,12.60
2022-10-14T20:26:21.318Z,11.75
2022-10-14T20:28:50.202Z,19.85
2022-10-14T20:31:22.062Z,13.15
2022-10-14T20:33:49.613Z,15.82
2022-10-14T20:36:21.781Z,15.05
2022-10-14T20:38:50.209Z,16.33
2022-10-14T20:41:27.209Z,17.30
2022-10-14T20:43:56.155Z,14.98
2022-10-14T20:46:24.879Z,15.68
2022-10-14T20:48:58.253Z,17.90
2022-10-14T20:51:26.264Z,18.20
2022-10-14T20:56:34.784Z,16.17
2022-10-14T20:59:07.567Z,19.30
2022-10-14T21:01:36.886Z,14.50
2022-10-14T21:04:08.073Z,17.65
2022-10-14T21:06:36.567Z,15.60
2022-10-14T21:09:03.867Z,19.55
2022-10-14T21:11:31.205Z,19.20
2022-10-14T21:14:00.745Z,20.50
2022-10-14T21:16:36.204Z,18.67
2022-10-14T21:19:09.015Z,22.15
2022-10-14T21:21:45.481Z,22.27
2022-10-14T21:24:16.937Z,20.58
2022-10-14T21:26:49.348Z,21.83
2022-10-14T21:29:18.501Z,26.55
2022-10-14T21:31:46.791Z,28.85
2022-10-14T21:34:15.040Z,28.13
2022-10-14T21:36:42.927Z,29.08
2022-10-14T21:39:15.413Z,33.53
2022-10-14T21:41:43.032Z,30.73
2022-10-14T21:44:16.843Z,30.85
2022-10-14T21:46:44.534Z,30.52
2022-10-14T21:49:12.878Z,30.10
2022-10-14T21:51:40.667Z,28.92
2022-10-14T21:54:10.935Z,30.17
2022-10-14T21:56:37.998Z,32.75
2022-10-14T21:59:04.978Z,28.77
2022-10-14T22:01:32.236Z,30.17
2022-10-14T22:04:04.436Z,32.70
2022-10-14T22:06:35.974Z,30.85
2022-10-14T22:09:07.655Z,27.20
2022-10-14T22:11:40.453Z,29.00
2022-10-14T22:14:18.836Z,33.53
2022-10-14T22:16:47.752Z,30.92
2022-10-14T22:19:15.322Z,27.50
2022-10-14T22:21:46.263Z,26.73
2022-10-14T22:24:14.571Z,33.47
2022-10-14T22:26:42.457Z,32.45
2022-10-14T22:29:17.335Z,29.15
2022-10-14T22:31:45.895Z,34.42
2022-10-14T22:34:17.833Z,33.13
2022-10-14T22:36:45.706Z,35.35
2022-10-14T22:39:16.417Z,29.23
2022-10-14T22:41:43.664Z,33.67
2022-10-14T22:44:10.838Z,32.22
2022-10-14T22:46:40.483Z,32.63
2022-10-14T22:49:07.806Z,30.33
2022-10-14T22:51:42.608Z,34.25
2022-10-14T22:54:11.211Z,38.53
2022-10-14T22:56:40.362Z,33.40
2022-10-14T22:59:11.594Z,34.40
2022-10-14T23:01:43.519Z,35.80
2022-10-14T23:04:11.997Z,37.95
2022-10-14T23:06:40.438Z,34.88
2022-10-14T23:09:07.416Z,39.38
2022-10-14T23:11:34.418Z,34.75
2022-10-14T23:14:04.583Z,32.77
2022-10-14T23:16:34.846Z,31.17
2022-10-14T23:19:02.700Z,34.25
2022-10-14T23:21:35.455Z,31.77
2022-10-14T23:24:11.945Z,31.92
2022-10-14T23:26:39.233Z,37.53
2022-10-14T23:29:11.796Z,33.53
2022-10-14T23:31:41.251Z,35.05
2022-10-14T23:34:13.609Z,33.42
2022-10-14T23:36:41.611Z,40.15
2022-10-14T23:39:09.367Z,41.20
2022-10-14T23:41:36.484Z,36.20
2022-10-14T23:44:03.733Z,36.67
2022-10-14T23:46:30.974Z,35.67
2022-10-14T23:49:07.728Z,35.25
2022-10-14T23:51:44.860Z,35.80
2022-10-14T23:54:11.832Z,38.72
2022-10-14T23:56:38.784Z,33.88
2022-10-14T23:59:05.753Z,31.75
